sensor_id;sensor_type;location;lat;lon;timestamp;temperature;humidity
25128;DHT22;13107;51.304;6.866;2023-05-24T00:01:20;6.90;99.90
25128;DHT22;13107;51.304;6.866;2023-05-24T00:05:26;6.90;99.90
25128;DHT22;13107;51.304;6.866;2023-05-24T00:09:32;6.80;99.90
25128;DHT22;13107;51.304;6.866;2023-05-24T00:13:33;6.70;99.90
25128;DHT22;13107;51.304;6.866;2023-05-24T00:17:35;6.70;99.90
25128;DHT22;13107;51.304;6.866;2023-05-24T00:21:42;6.60;99.90
25128;DHT22;13107;51.304;6.866;2023-05-24T00:25:43;6.60;99.90
25128;DHT22;13107;51.304;6.866;2023-05-24T00:29:45;6.50;99.90
25128;DHT22;13107;51.304;6.866;2023-05-24T00:33:47;6.50;99.90
25128;DHT22;13107;51.304;6.866;2023-05-24T00:37:49;6.40;99.90
25128;DHT22;13107;51.304;6.866;2023-05-24T00:41:51;6.40;99.90
25128;DHT22;13107;51.304;6.866;2023-05-24T00:46:12;6.40;99.90
25128;DHT22;13107;51.304;6.866;2023-05-24T00:50:16;6.30;99.90
25128;DHT22;13107;51.304;6.866;2023-05-24T00:54:18;6.20;99.90
25128;DHT22;13107;51.304;6.866;2023-05-24T00:58:20;6.20;99.90
25128;DHT22;13107;51.304;6.866;2023-05-24T01:02:23;6.10;99.90
25128;DHT22;13107;51.304;6.866;2023-05-24T01:06:27;6.10;99.90
25128;DHT22;13107;51.304;6.866;2023-05-24T01:10:50;6.00;99.90
25128;DHT22;13107;51.304;6.866;2023-05-24T01:19:51;5.90;99.90
25128;DHT22;13107;51.304;6.866;2023-05-24T01:24:03;5.70;99.90
25128;DHT22;13107;51.304;6.866;2023-05-24T01:28:11;5.70;99.90
25128;DHT22;13107;51.304;6.866;2023-05-24T01:32:13;5.60;99.90
25128;DHT22;13107;51.304;6.866;2023-05-24T01:36:15;5.60;99.90
25128;DHT22;13107;51.304;6.866;2023-05-24T01:40:17;5.50;99.90
25128;DHT22;13107;51.304;6.866;2023-05-24T01:49:22;5.50;99.90
25128;DHT22;13107;51.304;6.866;2023-05-24T01:53:29;5.30;99.90
25128;DHT22;13107;51.304;6.866;2023-05-24T01:57:33;5.30;99.90
25128;DHT22;13107;51.304;6.866;2023-05-24T02:01:35;5.30;99.90
25128;DHT22;13107;51.304;6.866;2023-05-24T02:05:38;5.30;99.90
25128;DHT22;13107;51.304;6.866;2023-05-24T02:09:39;5.30;99.90
25128;DHT22;13107;51.304;6.866;2023-05-24T02:13:41;5.30;99.90
25128;DHT22;13107;51.304;6.866;2023-05-24T02:17:43;5.20;99.90
25128;DHT22;13107;51.304;6.866;2023-05-24T02:21:46;5.10;99.90
25128;DHT22;13107;51.304;6.866;2023-05-24T02:25:48;5.10;99.90
25128;DHT22;13107;51.304;6.866;2023-05-24T02:29:50;5.00;99.90
25128;DHT22;13107;51.304;6.866;2023-05-24T02:33:57;5.10;99.90
25128;DHT22;13107;51.304;6.866;2023-05-24T02:37:58;5.00;99.90
25128;DHT22;13107;51.304;6.866;2023-05-24T02:42:02;5.00;99.90
25128;DHT22;13107;51.304;6.866;2023-05-24T02:46:06;4.90;99.90
25128;DHT22;13107;51.304;6.866;2023-05-24T02:50:08;4.80;99.90
25128;DHT22;13107;51.304;6.866;2023-05-24T02:54:11;4.80;99.90
25128;DHT22;13107;51.304;6.866;2023-05-24T02:58:12;4.70;99.90
25128;DHT22;13107;51.304;6.866;2023-05-24T03:02:14;4.70;99.90
25128;DHT22;13107;51.304;6.866;2023-05-24T03:06:16;4.70;99.90
25128;DHT22;13107;51.304;6.866;2023-05-24T03:10:18;4.60;99.90
25128;DHT22;13107;51.304;6.866;2023-05-24T03:14:20;4.60;99.90
25128;DHT22;13107;51.304;6.866;2023-05-24T03:18:24;4.60;99.90
25128;DHT22;13107;51.304;6.866;2023-05-24T03:22:26;4.60;99.90
25128;DHT22;13107;51.304;6.866;2023-05-24T03:26:28;4.60;99.90
25128;DHT22;13107;51.304;6.866;2023-05-24T03:30:30;4.60;99.90
25128;DHT22;13107;51.304;6.866;2023-05-24T03:34:31;4.60;99.90
25128;DHT22;13107;51.304;6.866;2023-05-24T03:38:33;4.50;99.90
25128;DHT22;13107;51.304;6.866;2023-05-24T03:42:35;4.50;99.90
25128;DHT22;13107;51.304;6.866;2023-05-24T03:46:37;4.30;99.90
25128;DHT22;13107;51.304;6.866;2023-05-24T03:50:39;4.40;99.90
25128;DHT22;13107;51.304;6.866;2023-05-24T03:54:41;4.50;99.90
25128;DHT22;13107;51.304;6.866;2023-05-24T03:58:43;4.40;99.90
25128;DHT22;13107;51.304;6.866;2023-05-24T04:02:45;4.50;99.90
25128;DHT22;13107;51.304;6.866;2023-05-24T04:06:47;4.50;99.90
25128;DHT22;13107;51.304;6.866;2023-05-24T04:10:50;4.50;99.90
25128;DHT22;13107;51.304;6.866;2023-05-24T04:14:52;4.50;99.90
25128;DHT22;13107;51.304;6.866;2023-05-24T04:18:54;4.70;99.90
25128;DHT22;13107;51.304;6.866;2023-05-24T04:22:57;4.70;99.90
25128;DHT22;13107;51.304;6.866;2023-05-24T04:26:59;4.80;99.90
25128;DHT22;13107;51.304;6.866;2023-05-24T04:31:01;4.90;99.90
25128;DHT22;13107;51.304;6.866;2023-05-24T04:35:04;5.20;99.90
25128;DHT22;13107;51.304;6.866;2023-05-24T04:39:06;5.40;99.90
25128;DHT22;13107;51.304;6.866;2023-05-24T04:43:07;5.60;99.90
25128;DHT22;13107;51.304;6.866;2023-05-24T04:47:11;6.00;99.90
25128;DHT22;13107;51.304;6.866;2023-05-24T04:51:13;6.30;99.90
25128;DHT22;13107;51.304;6.866;2023-05-24T04:55:15;6.80;99.90
25128;DHT22;13107;51.304;6.866;2023-05-24T04:59:17;6.90;99.90
25128;DHT22;13107;51.304;6.866;2023-05-24T05:03:18;7.00;99.90
25128;DHT22;13107;51.304;6.866;2023-05-24T05:07:20;6.90;99.90
25128;DHT22;13107;51.304;6.866;2023-05-24T05:11:23;7.00;99.90
25128;DHT22;13107;51.304;6.866;2023-05-24T05:15:24;7.10;99.90
25128;DHT22;13107;51.304;6.866;2023-05-24T05:19:26;7.40;99.90
25128;DHT22;13107;51.304;6.866;2023-05-24T05:23:29;7.60;99.90
25128;DHT22;13107;51.304;6.866;2023-05-24T05:27:30;7.80;99.90
25128;DHT22;13107;51.304;6.866;2023-05-24T05:31:32;8.00;99.90
25128;DHT22;13107;51.304;6.866;2023-05-24T05:35:34;8.10;99.90
25128;DHT22;13107;51.304;6.866;2023-05-24T05:39:36;8.30;99.90
25128;DHT22;13107;51.304;6.866;2023-05-24T05:43:37;8.50;99.90
25128;DHT22;13107;51.304;6.866;2023-05-24T05:47:39;8.60;99.90
25128;DHT22;13107;51.304;6.866;2023-05-24T05:51:41;8.80;99.90
25128;DHT22;13107;51.304;6.866;2023-05-24T05:55:43;8.90;99.90
25128;DHT22;13107;51.304;6.866;2023-05-24T05:59:45;9.10;99.90
25128;DHT22;13107;51.304;6.866;2023-05-24T06:03:46;9.10;99.90
25128;DHT22;13107;51.304;6.866;2023-05-24T06:07:49;9.20;99.90
25128;DHT22;13107;51.304;6.866;2023-05-24T06:11:50;9.40;99.90
25128;DHT22;13107;51.304;6.866;2023-05-24T06:15:55;9.70;99.90
25128;DHT22;13107;51.304;6.866;2023-05-24T06:20:00;9.80;99.90
25128;DHT22;13107;51.304;6.866;2023-05-24T06:24:02;10.10;99.90
25128;DHT22;13107;51.304;6.866;2023-05-24T06:28:04;10.30;99.90
25128;DHT22;13107;51.304;6.866;2023-05-24T06:32:06;10.70;99.90
25128;DHT22;13107;51.304;6.866;2023-05-24T06:36:08;11.00;99.90
25128;DHT22;13107;51.304;6.866;2023-05-24T06:40:10;11.30;99.90
25128;DHT22;13107;51.304;6.866;2023-05-24T06:44:13;12.00;99.90
25128;DHT22;13107;51.304;6.866;2023-05-24T06:48:15;12.10;99.90
25128;DHT22;13107;51.304;6.866;2023-05-24T06:52:17;12.60;99.90
25128;DHT22;13107;51.304;6.866;2023-05-24T06:56:19;12.70;99.90
25128;DHT22;13107;51.304;6.866;2023-05-24T07:00:22;12.60;99.90
25128;DHT22;13107;51.304;6.866;2023-05-24T07:04:24;12.50;99.90
25128;DHT22;13107;51.304;6.866;2023-05-24T07:08:26;12.50;99.90
25128;DHT22;13107;51.304;6.866;2023-05-24T07:12:28;11.90;99.90
25128;DHT22;13107;51.304;6.866;2023-05-24T07:16:30;11.90;99.90
25128;DHT22;13107;51.304;6.866;2023-05-24T07:20:32;12.30;99.90
25128;DHT22;13107;51.304;6.866;2023-05-24T07:24:34;12.40;99.90
25128;DHT22;13107;51.304;6.866;2023-05-24T07:28:36;12.40;99.90
25128;DHT22;13107;51.304;6.866;2023-05-24T07:32:39;12.30;99.90
25128;DHT22;13107;51.304;6.866;2023-05-24T07:36:41;12.30;99.90
25128;DHT22;13107;51.304;6.866;2023-05-24T07:40:43;12.30;99.90
25128;DHT22;13107;51.304;6.866;2023-05-24T07:44:45;12.40;99.90
25128;DHT22;13107;51.304;6.866;2023-05-24T07:48:47;12.30;99.90
25128;DHT22;13107;51.304;6.866;2023-05-24T07:52:49;12.30;99.90
25128;DHT22;13107;51.304;6.866;2023-05-24T07:56:51;12.60;99.90
25128;DHT22;13107;51.304;6.866;2023-05-24T08:00:53;12.90;99.90
25128;DHT22;13107;51.304;6.866;2023-05-24T08:04:55;13.00;99.90
25128;DHT22;13107;51.304;6.866;2023-05-24T08:08:57;12.80;99.90
25128;DHT22;13107;51.304;6.866;2023-05-24T08:12:59;12.90;99.90
25128;DHT22;13107;51.304;6.866;2023-05-24T08:17:01;13.50;99.90
25128;DHT22;13107;51.304;6.866;2023-05-24T08:21:03;13.50;99.90
25128;DHT22;13107;51.304;6.866;2023-05-24T08:25:05;14.00;99.90
25128;DHT22;13107;51.304;6.866;2023-05-24T08:29:07;14.20;99.90
25128;DHT22;13107;51.304;6.866;2023-05-24T08:33:09;14.10;99.90
25128;DHT22;13107;51.304;6.866;2023-05-24T08:37:12;13.70;99.90
25128;DHT22;13107;51.304;6.866;2023-05-24T08:41:16;13.70;99.90
25128;DHT22;13107;51.304;6.866;2023-05-24T08:45:20;13.40;99.90
25128;DHT22;13107;51.304;6.866;2023-05-24T08:49:23;13.40;99.90
25128;DHT22;13107;51.304;6.866;2023-05-24T08:53:25;13.10;99.90
25128;DHT22;13107;51.304;6.866;2023-05-24T08:57:28;13.00;99.90
25128;DHT22;13107;51.304;6.866;2023-05-24T09:01:31;13.10;99.90
25128;DHT22;13107;51.304;6.866;2023-05-24T09:05:39;13.20;99.90
25128;DHT22;13107;51.304;6.866;2023-05-24T09:09:46;13.80;99.90
25128;DHT22;13107;51.304;6.866;2023-05-24T09:13:48;14.20;99.90
25128;DHT22;13107;51.304;6.866;2023-05-24T09:17:50;14.60;99.90
25128;DHT22;13107;51.304;6.866;2023-05-24T09:21:52;15.10;99.90
25128;DHT22;13107;51.304;6.866;2023-05-24T09:25:55;16.60;99.90
25128;DHT22;13107;51.304;6.866;2023-05-24T09:29:57;17.10;99.90
25128;DHT22;13107;51.304;6.866;2023-05-24T09:33:59;18.10;99.90
25128;DHT22;13107;51.304;6.866;2023-05-24T09:38:01;17.30;99.90
25128;DHT22;13107;51.304;6.866;2023-05-24T09:42:04;16.30;99.90
25128;DHT22;13107;51.304;6.866;2023-05-24T09:46:06;15.60;99.90
25128;DHT22;13107;51.304;6.866;2023-05-24T09:50:12;15.60;99.90
25128;DHT22;13107;51.304;6.866;2023-05-24T09:54:15;15.80;99.90
25128;DHT22;13107;51.304;6.866;2023-05-24T09:58:18;16.60;99.90
25128;DHT22;13107;51.304;6.866;2023-05-24T10:02:20;16.50;99.90
25128;DHT22;13107;51.304;6.866;2023-05-24T10:06:24;15.60;99.90
25128;DHT22;13107;51.304;6.866;2023-05-24T10:10:27;15.20;99.90
25128;DHT22;13107;51.304;6.866;2023-05-24T10:14:34;15.10;99.90
25128;DHT22;13107;51.304;6.866;2023-05-24T10:18:37;14.70;99.90
25128;DHT22;13107;51.304;6.866;2023-05-24T10:22:45;14.90;99.90
25128;DHT22;13107;51.304;6.866;2023-05-24T10:26:48;15.50;99.90
25128;DHT22;13107;51.304;6.866;2023-05-24T10:31:14;15.50;99.90
25128;DHT22;13107;51.304;6.866;2023-05-24T10:35:17;15.50;99.90
25128;DHT22;13107;51.304;6.866;2023-05-24T10:39:21;15.60;99.90
25128;DHT22;13107;51.304;6.866;2023-05-24T10:43:23;16.30;99.90
25128;DHT22;13107;51.304;6.866;2023-05-24T10:47:26;16.20;99.90
25128;DHT22;13107;51.304;6.866;2023-05-24T10:51:36;16.30;99.90
25128;DHT22;13107;51.304;6.866;2023-05-24T10:55:55;16.20;99.90
25128;DHT22;13107;51.304;6.866;2023-05-24T11:04:46;15.00;99.90
25128;DHT22;13107;51.304;6.866;2023-05-24T11:08:49;15.00;99.90
25128;DHT22;13107;51.304;6.866;2023-05-24T11:13:00;15.40;99.90
25128;DHT22;13107;51.304;6.866;2023-05-24T11:17:03;15.50;99.90
25128;DHT22;13107;51.304;6.866;2023-05-24T11:21:06;15.20;99.90
25128;DHT22;13107;51.304;6.866;2023-05-24T11:25:08;15.10;99.90
25128;DHT22;13107;51.304;6.866;2023-05-24T11:29:14;14.70;99.90
25128;DHT22;13107;51.304;6.866;2023-05-24T11:33:20;14.40;99.90
25128;DHT22;13107;51.304;6.866;2023-05-24T11:37:23;14.00;99.90
25128;DHT22;13107;51.304;6.866;2023-05-24T11:41:46;13.90;99.90
25128;DHT22;13107;51.304;6.866;2023-05-24T11:45:50;13.90;99.90
25128;DHT22;13107;51.304;6.866;2023-05-24T11:49:52;13.80;99.90
25128;DHT22;13107;51.304;6.866;2023-05-24T11:53:58;13.80;99.90
25128;DHT22;13107;51.304;6.866;2023-05-24T11:58:01;14.30;99.90
25128;DHT22;13107;51.304;6.866;2023-05-24T12:02:06;14.40;99.90
25128;DHT22;13107;51.304;6.866;2023-05-24T12:06:09;14.50;99.90
25128;DHT22;13107;51.304;6.866;2023-05-24T12:10:11;14.50;99.90
25128;DHT22;13107;51.304;6.866;2023-05-24T12:14:16;14.90;99.90
25128;DHT22;13107;51.304;6.866;2023-05-24T12:18:22;15.50;99.90
25128;DHT22;13107;51.304;6.866;2023-05-24T12:22:27;15.00;99.90
25128;DHT22;13107;51.304;6.866;2023-05-24T12:26:30;15.20;99.90
25128;DHT22;13107;51.304;6.866;2023-05-24T12:30:32;15.80;99.90
25128;DHT22;13107;51.304;6.866;2023-05-24T12:34:33;16.70;99.90
25128;DHT22;13107;51.304;6.866;2023-05-24T12:38:35;17.10;99.90
25128;DHT22;13107;51.304;6.866;2023-05-24T12:42:37;17.00;99.90
25128;DHT22;13107;51.304;6.866;2023-05-24T12:46:39;16.70;99.90
25128;DHT22;13107;51.304;6.866;2023-05-24T12:50:41;16.60;99.90
25128;DHT22;13107;51.304;6.866;2023-05-24T12:54:43;16.40;99.90
25128;DHT22;13107;51.304;6.866;2023-05-24T12:58:45;16.10;99.90
25128;DHT22;13107;51.304;6.866;2023-05-24T13:02:48;15.80;99.90
25128;DHT22;13107;51.304;6.866;2023-05-24T13:06:50;15.80;99.90
25128;DHT22;13107;51.304;6.866;2023-05-24T13:10:52;16.20;99.90
25128;DHT22;13107;51.304;6.866;2023-05-24T13:14:54;17.00;99.90
25128;DHT22;13107;51.304;6.866;2023-05-24T13:18:56;17.00;99.90
25128;DHT22;13107;51.304;6.866;2023-05-24T13:22:58;16.70;99.90
25128;DHT22;13107;51.304;6.866;2023-05-24T13:26:59;16.30;99.90
25128;DHT22;13107;51.304;6.866;2023-05-24T13:31:02;16.30;99.90
25128;DHT22;13107;51.304;6.866;2023-05-24T13:35:04;16.40;99.90
25128;DHT22;13107;51.304;6.866;2023-05-24T13:39:09;16.30;99.90
25128;DHT22;13107;51.304;6.866;2023-05-24T13:43:16;16.00;99.90
25128;DHT22;13107;51.304;6.866;2023-05-24T13:47:18;15.30;99.90
25128;DHT22;13107;51.304;6.866;2023-05-24T13:51:41;15.20;99.90
25128;DHT22;13107;51.304;6.866;2023-05-24T13:55:43;15.30;99.90
25128;DHT22;13107;51.304;6.866;2023-05-24T13:59:45;15.50;99.90
25128;DHT22;13107;51.304;6.866;2023-05-24T14:03:46;15.30;99.90
25128;DHT22;13107;51.304;6.866;2023-05-24T14:07:48;14.90;99.90
25128;DHT22;13107;51.304;6.866;2023-05-24T14:11:51;15.20;99.90
25128;DHT22;13107;51.304;6.866;2023-05-24T14:15:53;15.50;99.90
25128;DHT22;13107;51.304;6.866;2023-05-24T14:19:55;16.00;99.90
25128;DHT22;13107;51.304;6.866;2023-05-24T14:23:57;16.40;99.90
25128;DHT22;13107;51.304;6.866;2023-05-24T14:27:59;16.70;99.90
25128;DHT22;13107;51.304;6.866;2023-05-24T14:32:00;16.30;99.90
25128;DHT22;13107;51.304;6.866;2023-05-24T14:36:02;15.90;99.90
25128;DHT22;13107;51.304;6.866;2023-05-24T14:40:05;15.60;99.90
25128;DHT22;13107;51.304;6.866;2023-05-24T14:44:07;15.60;99.90
25128;DHT22;13107;51.304;6.866;2023-05-24T14:48:10;15.30;99.90
25128;DHT22;13107;51.304;6.866;2023-05-24T14:52:12;15.30;99.90
25128;DHT22;13107;51.304;6.866;2023-05-24T14:56:14;14.90;99.90
25128;DHT22;13107;51.304;6.866;2023-05-24T15:00:16;14.80;99.90
25128;DHT22;13107;51.304;6.866;2023-05-24T15:04:23;15.00;99.90
25128;DHT22;13107;51.304;6.866;2023-05-24T15:08:25;15.10;99.90
25128;DHT22;13107;51.304;6.866;2023-05-24T15:12:26;15.20;99.90
25128;DHT22;13107;51.304;6.866;2023-05-24T15:16:28;15.20;99.90
25128;DHT22;13107;51.304;6.866;2023-05-24T15:20:32;14.80;99.90
25128;DHT22;13107;51.304;6.866;2023-05-24T15:24:37;14.60;99.90
25128;DHT22;13107;51.304;6.866;2023-05-24T15:28:38;14.60;99.90
25128;DHT22;13107;51.304;6.866;2023-05-24T15:32:40;14.50;99.90
25128;DHT22;13107;51.304;6.866;2023-05-24T15:36:44;14.50;99.90
25128;DHT22;13107;51.304;6.866;2023-05-24T15:40:46;14.70;99.90
25128;DHT22;13107;51.304;6.866;2023-05-24T15:44:48;14.70;99.90
25128;DHT22;13107;51.304;6.866;2023-05-24T15:48:49;14.90;99.90
25128;DHT22;13107;51.304;6.866;2023-05-24T15:52:51;15.00;99.90
25128;DHT22;13107;51.304;6.866;2023-05-24T15:56:53;14.90;99.90
25128;DHT22;13107;51.304;6.866;2023-05-24T16:00:55;14.70;99.90
25128;DHT22;13107;51.304;6.866;2023-05-24T16:04:56;14.80;99.90
25128;DHT22;13107;51.304;6.866;2023-05-24T16:08:58;14.80;99.90
25128;DHT22;13107;51.304;6.866;2023-05-24T16:13:00;14.60;99.90
25128;DHT22;13107;51.304;6.866;2023-05-24T16:17:02;14.60;99.90
25128;DHT22;13107;51.304;6.866;2023-05-24T16:21:06;14.70;99.90
25128;DHT22;13107;51.304;6.866;2023-05-24T16:25:09;14.70;99.90
25128;DHT22;13107;51.304;6.866;2023-05-24T16:29:10;14.60;99.90
25128;DHT22;13107;51.304;6.866;2023-05-24T16:33:15;14.60;99.90
25128;DHT22;13107;51.304;6.866;2023-05-24T16:37:17;14.70;99.90
25128;DHT22;13107;51.304;6.866;2023-05-24T16:41:18;14.90;99.90
25128;DHT22;13107;51.304;6.866;2023-05-24T16:45:20;14.70;99.90
25128;DHT22;13107;51.304;6.866;2023-05-24T16:49:22;14.60;99.90
25128;DHT22;13107;51.304;6.866;2023-05-24T16:53:25;14.50;99.90
25128;DHT22;13107;51.304;6.866;2023-05-24T16:57:27;14.40;99.90
25128;DHT22;13107;51.304;6.866;2023-05-24T17:01:29;14.30;99.90
25128;DHT22;13107;51.304;6.866;2023-05-24T17:05:31;14.20;99.90
25128;DHT22;13107;51.304;6.866;2023-05-24T17:09:33;14.30;99.90
25128;DHT22;13107;51.304;6.866;2023-05-24T17:13:35;14.20;99.90
25128;DHT22;13107;51.304;6.866;2023-05-24T17:17:37;14.30;99.90
25128;DHT22;13107;51.304;6.866;2023-05-24T17:21:39;14.20;99.90
25128;DHT22;13107;51.304;6.866;2023-05-24T17:25:40;14.20;99.90
25128;DHT22;13107;51.304;6.866;2023-05-24T17:29:42;14.20;99.90
25128;DHT22;13107;51.304;6.866;2023-05-24T17:33:45;14.10;99.90
25128;DHT22;13107;51.304;6.866;2023-05-24T17:37:47;14.10;99.90
25128;DHT22;13107;51.304;6.866;2023-05-24T17:41:48;14.00;99.90
25128;DHT22;13107;51.304;6.866;2023-05-24T17:45:50;14.00;99.90
25128;DHT22;13107;51.304;6.866;2023-05-24T17:49:53;14.00;99.90
25128;DHT22;13107;51.304;6.866;2023-05-24T17:53:54;13.80;99.90
25128;DHT22;13107;51.304;6.866;2023-05-24T17:57:56;13.70;99.90
25128;DHT22;13107;51.304;6.866;2023-05-24T18:01:58;13.60;99.90
25128;DHT22;13107;51.304;6.866;2023-05-24T18:06:00;13.60;99.90
25128;DHT22;13107;51.304;6.866;2023-05-24T18:10:04;13.60;99.90
25128;DHT22;13107;51.304;6.866;2023-05-24T18:14:07;13.60;99.90
25128;DHT22;13107;51.304;6.866;2023-05-24T18:18:09;13.60;99.90
25128;DHT22;13107;51.304;6.866;2023-05-24T18:22:11;13.60;99.90
25128;DHT22;13107;51.304;6.866;2023-05-24T18:26:12;13.60;99.90
25128;DHT22;13107;51.304;6.866;2023-05-24T18:30:15;13.70;99.90
25128;DHT22;13107;51.304;6.866;2023-05-24T18:34:17;13.70;99.90
25128;DHT22;13107;51.304;6.866;2023-05-24T18:38:18;13.60;99.90
25128;DHT22;13107;51.304;6.866;2023-05-24T18:42:20;13.60;99.90
25128;DHT22;13107;51.304;6.866;2023-05-24T18:46:22;13.60;99.90
25128;DHT22;13107;51.304;6.866;2023-05-24T18:50:26;13.60;99.90
25128;DHT22;13107;51.304;6.866;2023-05-24T18:54:28;13.50;99.90
25128;DHT22;13107;51.304;6.866;2023-05-24T18:58:30;13.40;99.90
25128;DHT22;13107;51.304;6.866;2023-05-24T19:02:33;13.30;99.90
25128;DHT22;13107;51.304;6.866;2023-05-24T19:06:39;13.10;99.90
25128;DHT22;13107;51.304;6.866;2023-05-24T19:10:41;13.00;99.90
25128;DHT22;13107;51.304;6.866;2023-05-24T19:14:43;12.90;99.90
25128;DHT22;13107;51.304;6.866;2023-05-24T19:18:45;12.70;99.90
25128;DHT22;13107;51.304;6.866;2023-05-24T19:22:46;12.60;99.90
25128;DHT22;13107;51.304;6.866;2023-05-24T19:26:51;12.40;99.90
25128;DHT22;13107;51.304;6.866;2023-05-24T19:30:53;12.30;99.90
25128;DHT22;13107;51.304;6.866;2023-05-24T19:34:55;12.10;99.90
25128;DHT22;13107;51.304;6.866;2023-05-24T19:38:57;12.00;99.90
25128;DHT22;13107;51.304;6.866;2023-05-24T19:42:59;11.80;99.90
25128;DHT22;13107;51.304;6.866;2023-05-24T19:47:01;11.70;99.90
25128;DHT22;13107;51.304;6.866;2023-05-24T19:51:03;11.70;99.90
25128;DHT22;13107;51.304;6.866;2023-05-24T19:55:06;11.60;99.90
25128;DHT22;13107;51.304;6.866;2023-05-24T19:59:08;11.40;99.90
25128;DHT22;13107;51.304;6.866;2023-05-24T20:03:10;11.30;99.90
25128;DHT22;13107;51.304;6.866;2023-05-24T20:07:12;11.10;99.90
25128;DHT22;13107;51.304;6.866;2023-05-24T20:11:15;11.10;99.90
25128;DHT22;13107;51.304;6.866;2023-05-24T20:15:17;10.90;99.90
25128;DHT22;13107;51.304;6.866;2023-05-24T20:19:19;10.80;99.90
25128;DHT22;13107;51.304;6.866;2023-05-24T20:23:23;10.60;99.90
25128;DHT22;13107;51.304;6.866;2023-05-24T20:27:27;10.40;99.90
25128;DHT22;13107;51.304;6.866;2023-05-24T20:31:29;10.30;99.90
25128;DHT22;13107;51.304;6.866;2023-05-24T20:35:31;10.20;99.90
25128;DHT22;13107;51.304;6.866;2023-05-24T20:39:33;10.10;99.90
25128;DHT22;13107;51.304;6.866;2023-05-24T20:43:35;10.00;99.90
25128;DHT22;13107;51.304;6.866;2023-05-24T20:47:36;9.90;99.90
25128;DHT22;13107;51.304;6.866;2023-05-24T20:51:38;9.80;99.90
25128;DHT22;13107;51.304;6.866;2023-05-24T20:55:40;9.70;99.90
25128;DHT22;13107;51.304;6.866;2023-05-24T20:59:42;9.60;99.90
25128;DHT22;13107;51.304;6.866;2023-05-24T21:03:44;9.50;99.90
25128;DHT22;13107;51.304;6.866;2023-05-24T21:07:46;9.60;99.90
25128;DHT22;13107;51.304;6.866;2023-05-24T21:11:48;9.40;99.90
25128;DHT22;13107;51.304;6.866;2023-05-24T21:15:49;9.30;99.90
25128;DHT22;13107;51.304;6.866;2023-05-24T21:19:51;9.20;99.90
25128;DHT22;13107;51.304;6.866;2023-05-24T21:23:53;9.20;99.90
25128;DHT22;13107;51.304;6.866;2023-05-24T21:27:56;9.10;99.90
25128;DHT22;13107;51.304;6.866;2023-05-24T21:31:57;9.00;99.90
25128;DHT22;13107;51.304;6.866;2023-05-24T21:35:59;9.00;99.90
25128;DHT22;13107;51.304;6.866;2023-05-24T21:40:04;8.90;99.90
25128;DHT22;13107;51.304;6.866;2023-05-24T21:44:06;8.80;99.90
25128;DHT22;13107;51.304;6.866;2023-05-24T21:48:09;8.80;99.90
25128;DHT22;13107;51.304;6.866;2023-05-24T21:52:11;8.70;99.90
25128;DHT22;13107;51.304;6.866;2023-05-24T21:56:13;8.70;99.90
25128;DHT22;13107;51.304;6.866;2023-05-24T22:00:15;8.70;99.90
25128;DHT22;13107;51.304;6.866;2023-05-24T22:04:17;8.60;99.90
25128;DHT22;13107;51.304;6.866;2023-05-24T22:08:19;8.60;99.90
25128;DHT22;13107;51.304;6.866;2023-05-24T22:12:21;8.40;99.90
25128;DHT22;13107;51.304;6.866;2023-05-24T22:16:23;8.30;99.90
25128;DHT22;13107;51.304;6.866;2023-05-24T22:20:25;8.30;99.90
25128;DHT22;13107;51.304;6.866;2023-05-24T22:24:28;8.20;99.90
25128;DHT22;13107;51.304;6.866;2023-05-24T22:28:55;8.20;99.90
25128;DHT22;13107;51.304;6.866;2023-05-24T22:33:01;8.10;99.90
25128;DHT22;13107;51.304;6.866;2023-05-24T22:37:03;8.00;99.90
25128;DHT22;13107;51.304;6.866;2023-05-24T22:41:05;8.00;99.90
25128;DHT22;13107;51.304;6.866;2023-05-24T22:45:08;7.90;99.90
25128;DHT22;13107;51.304;6.866;2023-05-24T22:49:10;7.90;99.90
25128;DHT22;13107;51.304;6.866;2023-05-24T22:53:14;7.80;99.90
25128;DHT22;13107;51.304;6.866;2023-05-24T22:57:17;7.80;99.90
25128;DHT22;13107;51.304;6.866;2023-05-24T23:01:22;7.80;99.90
25128;DHT22;13107;51.304;6.866;2023-05-24T23:05:24;7.80;99.90
25128;DHT22;13107;51.304;6.866;2023-05-24T23:09:26;7.70;99.90
25128;DHT22;13107;51.304;6.866;2023-05-24T23:13:36;7.70;99.90
25128;DHT22;13107;51.304;6.866;2023-05-24T23:17:38;7.60;99.90
25128;DHT22;13107;51.304;6.866;2023-05-24T23:21:40;7.60;99.90
25128;DHT22;13107;51.304;6.866;2023-05-24T23:25:42;7.60;99.90
25128;DHT22;13107;51.304;6.866;2023-05-24T23:29:44;7.50;99.90
25128;DHT22;13107;51.304;6.866;2023-05-24T23:33:46;7.60;99.90
25128;DHT22;13107;51.304;6.866;2023-05-24T23:37:48;7.60;99.90
25128;DHT22;13107;51.304;6.866;2023-05-24T23:41:50;7.70;99.90
25128;DHT22;13107;51.304;6.866;2023-05-24T23:45:52;7.60;99.90
25128;DHT22;13107;51.304;6.866;2023-05-24T23:49:54;7.60;99.90
25128;DHT22;13107;51.304;6.866;2023-05-24T23:53:56;7.60;99.90
25128;DHT22;13107;51.304;6.866;2023-05-24T23:57:57;7.50;99.90
